sensor_id;sensor_type;location;lat;lon;timestamp;P1;durP1;ratioP1;P2;durP2;ratioP2
6013;SDS011;3035;49.928;8.410;2023-02-22T00:01:51;29.47;;;17.00;;
6013;SDS011;3035;49.928;8.410;2023-02-22T00:04:19;27.33;;;15.63;;
6013;SDS011;3035;49.928;8.410;2023-02-22T00:06:47;35.20;;;16.80;;
6013;SDS011;3035;49.928;8.410;2023-02-22T00:09:16;44.00;;;19.23;;
6013;SDS011;3035;49.928;8.410;2023-02-22T00:11:45;45.43;;;20.20;;
6013;SDS011;3035;49.928;8.410;2023-02-22T00:14:12;31.70;;;17.07;;
6013;SDS011;3035;49.928;8.410;2023-02-22T00:16:40;37.77;;;19.07;;
6013;SDS011;3035;49.928;8.410;2023-02-22T00:19:09;42.07;;;16.10;;
6013;SDS011;3035;49.928;8.410;2023-02-22T00:21:38;47.77;;;16.47;;
6013;SDS011;3035;49.928;8.410;2023-02-22T00:24:06;29.60;;;15.53;;
6013;SDS011;3035;49.928;8.410;2023-02-22T00:26:34;29.23;;;14.07;;
6013;SDS011;3035;49.928;8.410;2023-02-22T00:29:04;26.83;;;14.77;;
6013;SDS011;3035;49.928;8.410;2023-02-22T00:31:35;28.83;;;14.73;;
6013;SDS011;3035;49.928;8.410;2023-02-22T00:34:01;26.33;;;14.93;;
6013;SDS011;3035;49.928;8.410;2023-02-22T00:36:29;29.20;;;14.80;;
6013;SDS011;3035;49.928;8.410;2023-02-22T00:38:57;31.83;;;13.43;;
6013;SDS011;3035;49.928;8.410;2023-02-22T00:41:26;23.20;;;12.93;;
6013;SDS011;3035;49.928;8.410;2023-02-22T00:43:55;23.07;;;12.33;;
6013;SDS011;3035;49.928;8.410;2023-02-22T00:46:23;24.20;;;12.80;;
6013;SDS011;3035;49.928;8.410;2023-02-22T00:48:51;21.70;;;13.27;;
6013;SDS011;3035;49.928;8.410;2023-02-22T00:51:20;22.30;;;11.83;;
6013;SDS011;3035;49.928;8.410;2023-02-22T00:53:48;28.03;;;11.90;;
6013;SDS011;3035;49.928;8.410;2023-02-22T00:56:17;22.67;;;11.67;;
6013;SDS011;3035;49.928;8.410;2023-02-22T00:58:45;20.17;;;11.57;;
6013;SDS011;3035;49.928;8.410;2023-02-22T01:01:13;22.27;;;10.00;;
6013;SDS011;3035;49.928;8.410;2023-02-22T01:03:42;16.73;;;9.73;;
6013;SDS011;3035;49.928;8.410;2023-02-22T01:06:11;15.03;;;9.53;;
6013;SDS011;3035;49.928;8.410;2023-02-22T01:08:42;16.90;;;9.47;;
6013;SDS011;3035;49.928;8.410;2023-02-22T01:11:08;13.70;;;8.57;;
6013;SDS011;3035;49.928;8.410;2023-02-22T01:13:36;15.13;;;9.47;;
6013;SDS011;3035;49.928;8.410;2023-02-22T01:16:04;13.77;;;8.70;;
6013;SDS011;3035;49.928;8.410;2023-02-22T01:18:34;20.93;;;10.27;;
6013;SDS011;3035;49.928;8.410;2023-02-22T01:21:02;13.70;;;9.00;;
6013;SDS011;3035;49.928;8.410;2023-02-22T01:23:31;11.93;;;8.73;;
6013;SDS011;3035;49.928;8.410;2023-02-22T01:25:59;19.43;;;9.80;;
6013;SDS011;3035;49.928;8.410;2023-02-22T01:28:27;14.70;;;9.67;;
6013;SDS011;3035;49.928;8.410;2023-02-22T01:30:55;13.90;;;9.20;;
6013;SDS011;3035;49.928;8.410;2023-02-22T01:33:23;19.03;;;10.10;;
6013;SDS011;3035;49.928;8.410;2023-02-22T01:35:52;19.73;;;10.70;;
6013;SDS011;3035;49.928;8.410;2023-02-22T01:38:20;20.30;;;10.77;;
6013;SDS011;3035;49.928;8.410;2023-02-22T01:40:49;19.60;;;11.53;;
6013;SDS011;3035;49.928;8.410;2023-02-22T01:43:18;24.30;;;10.43;;
6013;SDS011;3035;49.928;8.410;2023-02-22T01:45:53;18.20;;;10.40;;
6013;SDS011;3035;49.928;8.410;2023-02-22T01:48:26;16.77;;;10.10;;
6013;SDS011;3035;49.928;8.410;2023-02-22T01:50:56;18.30;;;10.33;;
6013;SDS011;3035;49.928;8.410;2023-02-22T01:53:27;20.77;;;11.00;;
6013;SDS011;3035;49.928;8.410;2023-02-22T01:55:56;16.13;;;10.10;;
6013;SDS011;3035;49.928;8.410;2023-02-22T01:58:25;15.00;;;8.77;;
6013;SDS011;3035;49.928;8.410;2023-02-22T02:00:53;17.37;;;9.37;;
6013;SDS011;3035;49.928;8.410;2023-02-22T02:03:23;16.10;;;10.13;;
6013;SDS011;3035;49.928;8.410;2023-02-22T02:05:50;17.17;;;10.90;;
6013;SDS011;3035;49.928;8.410;2023-02-22T02:08:24;16.73;;;9.70;;
6013;SDS011;3035;49.928;8.410;2023-02-22T02:11:17;16.67;;;10.00;;
6013;SDS011;3035;49.928;8.410;2023-02-22T02:13:44;14.93;;;9.00;;
6013;SDS011;3035;49.928;8.410;2023-02-22T02:16:13;19.70;;;8.50;;
6013;SDS011;3035;49.928;8.410;2023-02-22T02:18:41;19.93;;;10.00;;
6013;SDS011;3035;49.928;8.410;2023-02-22T02:24:25;15.40;;;9.10;;
6013;SDS011;3035;49.928;8.410;2023-02-22T02:27:07;17.30;;;9.63;;
6013;SDS011;3035;49.928;8.410;2023-02-22T02:29:57;15.93;;;9.10;;
6013;SDS011;3035;49.928;8.410;2023-02-22T02:32:21;15.83;;;9.30;;
6013;SDS011;3035;49.928;8.410;2023-02-22T02:34:56;14.87;;;9.17;;
6013;SDS011;3035;49.928;8.410;2023-02-22T02:37:38;16.33;;;8.87;;
6013;SDS011;3035;49.928;8.410;2023-02-22T02:43:13;16.30;;;9.20;;
6013;SDS011;3035;49.928;8.410;2023-02-22T02:46:02;17.23;;;8.67;;
6013;SDS011;3035;49.928;8.410;2023-02-22T02:48:28;14.47;;;8.53;;
6013;SDS011;3035;49.928;8.410;2023-02-22T02:50:57;14.40;;;8.70;;
6013;SDS011;3035;49.928;8.410;2023-02-22T02:53:27;12.60;;;8.47;;
6013;SDS011;3035;49.928;8.410;2023-02-22T02:55:56;18.30;;;9.07;;
6013;SDS011;3035;49.928;8.410;2023-02-22T02:58:23;15.37;;;8.90;;
6013;SDS011;3035;49.928;8.410;2023-02-22T03:00:52;18.53;;;9.07;;
6013;SDS011;3035;49.928;8.410;2023-02-22T03:06:06;14.83;;;8.40;;
6013;SDS011;3035;49.928;8.410;2023-02-22T03:08:54;14.10;;;9.07;;
6013;SDS011;3035;49.928;8.410;2023-02-22T03:11:28;18.40;;;9.33;;
6013;SDS011;3035;49.928;8.410;2023-02-22T03:14:00;18.20;;;9.47;;
6013;SDS011;3035;49.928;8.410;2023-02-22T03:16:35;15.90;;;9.83;;
6013;SDS011;3035;49.928;8.410;2023-02-22T03:19:19;14.70;;;8.90;;
6013;SDS011;3035;49.928;8.410;2023-02-22T03:22:01;16.70;;;9.80;;
6013;SDS011;3035;49.928;8.410;2023-02-22T03:27:11;18.03;;;9.00;;
6013;SDS011;3035;49.928;8.410;2023-02-22T03:29:40;17.90;;;9.30;;
6013;SDS011;3035;49.928;8.410;2023-02-22T03:32:09;14.83;;;8.80;;
6013;SDS011;3035;49.928;8.410;2023-02-22T03:34:40;16.50;;;7.80;;
6013;SDS011;3035;49.928;8.410;2023-02-22T03:37:10;16.53;;;8.10;;
6013;SDS011;3035;49.928;8.410;2023-02-22T03:39:36;11.90;;;7.53;;
6013;SDS011;3035;49.928;8.410;2023-02-22T03:42:07;13.90;;;9.20;;
6013;SDS011;3035;49.928;8.410;2023-02-22T03:44:37;22.40;;;8.93;;
6013;SDS011;3035;49.928;8.410;2023-02-22T03:47:08;14.93;;;9.30;;
6013;SDS011;3035;49.928;8.410;2023-02-22T03:49:36;17.33;;;8.53;;
6013;SDS011;3035;49.928;8.410;2023-02-22T03:52:04;18.67;;;9.10;;
6013;SDS011;3035;49.928;8.410;2023-02-22T03:54:32;18.97;;;10.47;;
6013;SDS011;3035;49.928;8.410;2023-02-22T03:57:04;18.83;;;8.60;;
6013;SDS011;3035;49.928;8.410;2023-02-22T03:59:34;19.73;;;10.07;;
6013;SDS011;3035;49.928;8.410;2023-02-22T04:02:02;27.80;;;10.50;;
6013;SDS011;3035;49.928;8.410;2023-02-22T04:04:30;16.87;;;9.73;;
6013;SDS011;3035;49.928;8.410;2023-02-22T04:06:59;15.20;;;9.10;;
6013;SDS011;3035;49.928;8.410;2023-02-22T04:09:27;29.57;;;9.77;;
6013;SDS011;3035;49.928;8.410;2023-02-22T04:11:56;19.17;;;9.60;;
6013;SDS011;3035;49.928;8.410;2023-02-22T04:14:25;18.73;;;9.77;;
6013;SDS011;3035;49.928;8.410;2023-02-22T04:16:53;16.53;;;9.70;;
6013;SDS011;3035;49.928;8.410;2023-02-22T04:19:21;16.70;;;9.07;;
6013;SDS011;3035;49.928;8.410;2023-02-22T04:21:50;18.80;;;9.50;;
6013;SDS011;3035;49.928;8.410;2023-02-22T04:24:18;18.07;;;8.57;;
6013;SDS011;3035;49.928;8.410;2023-02-22T04:26:46;16.20;;;8.60;;
6013;SDS011;3035;49.928;8.410;2023-02-22T04:29:15;12.37;;;7.90;;
6013;SDS011;3035;49.928;8.410;2023-02-22T04:31:44;19.33;;;9.10;;
6013;SDS011;3035;49.928;8.410;2023-02-22T04:34:12;18.13;;;9.00;;
6013;SDS011;3035;49.928;8.410;2023-02-22T04:36:40;18.27;;;9.37;;
6013;SDS011;3035;49.928;8.410;2023-02-22T04:39:09;22.90;;;10.13;;
6013;SDS011;3035;49.928;8.410;2023-02-22T04:41:37;24.37;;;10.20;;
6013;SDS011;3035;49.928;8.410;2023-02-22T04:44:05;13.83;;;8.43;;
6013;SDS011;3035;49.928;8.410;2023-02-22T04:46:34;17.10;;;8.83;;
6013;SDS011;3035;49.928;8.410;2023-02-22T04:49:03;17.40;;;9.83;;
6013;SDS011;3035;49.928;8.410;2023-02-22T04:51:31;19.47;;;10.53;;
6013;SDS011;3035;49.928;8.410;2023-02-22T04:54:00;21.53;;;10.23;;
6013;SDS011;3035;49.928;8.410;2023-02-22T04:56:29;18.53;;;9.17;;
6013;SDS011;3035;49.928;8.410;2023-02-22T04:58:58;19.33;;;10.67;;
6013;SDS011;3035;49.928;8.410;2023-02-22T05:01:29;22.60;;;11.53;;
6013;SDS011;3035;49.928;8.410;2023-02-22T05:04:00;17.40;;;9.70;;
6013;SDS011;3035;49.928;8.410;2023-02-22T05:06:28;17.43;;;10.10;;
6013;SDS011;3035;49.928;8.410;2023-02-22T05:08:56;18.37;;;9.30;;
6013;SDS011;3035;49.928;8.410;2023-02-22T05:11:24;15.47;;;9.57;;
6013;SDS011;3035;49.928;8.410;2023-02-22T05:13:53;15.33;;;9.60;;
6013;SDS011;3035;49.928;8.410;2023-02-22T05:16:21;15.63;;;9.90;;
6013;SDS011;3035;49.928;8.410;2023-02-22T05:18:49;13.90;;;10.07;;
6013;SDS011;3035;49.928;8.410;2023-02-22T05:21:18;13.93;;;8.97;;
6013;SDS011;3035;49.928;8.410;2023-02-22T05:23:47;21.07;;;9.50;;
6013;SDS011;3035;49.928;8.410;2023-02-22T05:26:15;14.83;;;9.00;;
6013;SDS011;3035;49.928;8.410;2023-02-22T05:28:44;14.27;;;9.20;;
6013;SDS011;3035;49.928;8.410;2023-02-22T05:31:12;15.73;;;9.80;;
6013;SDS011;3035;49.928;8.410;2023-02-22T05:33:40;17.77;;;10.13;;
6013;SDS011;3035;49.928;8.410;2023-02-22T05:36:08;18.83;;;9.97;;
6013;SDS011;3035;49.928;8.410;2023-02-22T05:38:36;17.40;;;9.43;;
6013;SDS011;3035;49.928;8.410;2023-02-22T05:41:06;16.30;;;9.53;;
6013;SDS011;3035;49.928;8.410;2023-02-22T05:43:34;14.33;;;8.53;;
6013;SDS011;3035;49.928;8.410;2023-02-22T05:46:02;16.17;;;8.90;;
6013;SDS011;3035;49.928;8.410;2023-02-22T05:48:30;15.30;;;8.77;;
6013;SDS011;3035;49.928;8.410;2023-02-22T05:50:58;13.53;;;8.80;;
6013;SDS011;3035;49.928;8.410;2023-02-22T05:53:27;15.60;;;8.30;;
6013;SDS011;3035;49.928;8.410;2023-02-22T05:55:55;14.10;;;8.03;;
6013;SDS011;3035;49.928;8.410;2023-02-22T05:58:24;21.80;;;12.13;;
6013;SDS011;3035;49.928;8.410;2023-02-22T06:00:52;29.07;;;10.57;;
6013;SDS011;3035;49.928;8.410;2023-02-22T06:03:20;17.10;;;10.27;;
6013;SDS011;3035;49.928;8.410;2023-02-22T06:05:49;20.57;;;11.07;;
6013;SDS011;3035;49.928;8.410;2023-02-22T06:08:19;15.10;;;9.20;;
6013;SDS011;3035;49.928;8.410;2023-02-22T06:10:47;21.50;;;11.10;;
6013;SDS011;3035;49.928;8.410;2023-02-22T06:13:15;23.00;;;12.40;;
6013;SDS011;3035;49.928;8.410;2023-02-22T06:15:43;19.17;;;11.30;;
6013;SDS011;3035;49.928;8.410;2023-02-22T06:18:11;19.90;;;11.03;;
6013;SDS011;3035;49.928;8.410;2023-02-22T06:20:41;15.53;;;10.03;;
6013;SDS011;3035;49.928;8.410;2023-02-22T06:23:10;16.80;;;10.23;;
6013;SDS011;3035;49.928;8.410;2023-02-22T06:25:38;18.50;;;9.53;;
6013;SDS011;3035;49.928;8.410;2023-02-22T06:28:06;18.37;;;9.80;;
6013;SDS011;3035;49.928;8.410;2023-02-22T06:30:34;16.70;;;8.80;;
6013;SDS011;3035;49.928;8.410;2023-02-22T06:33:03;17.33;;;10.50;;
6013;SDS011;3035;49.928;8.410;2023-02-22T06:35:31;20.97;;;10.93;;
6013;SDS011;3035;49.928;8.410;2023-02-22T06:38:00;18.17;;;10.07;;
6013;SDS011;3035;49.928;8.410;2023-02-22T06:40:28;16.80;;;10.60;;
6013;SDS011;3035;49.928;8.410;2023-02-22T06:42:56;25.27;;;12.60;;
6013;SDS011;3035;49.928;8.410;2023-02-22T06:45:24;17.30;;;10.03;;
6013;SDS011;3035;49.928;8.410;2023-02-22T06:47:53;17.40;;;9.97;;
6013;SDS011;3035;49.928;8.410;2023-02-22T06:50:22;19.30;;;11.63;;
6013;SDS011;3035;49.928;8.410;2023-02-22T06:52:49;17.00;;;11.30;;
6013;SDS011;3035;49.928;8.410;2023-02-22T06:55:18;24.70;;;11.70;;
6013;SDS011;3035;49.928;8.410;2023-02-22T06:57:48;19.77;;;12.53;;
6013;SDS011;3035;49.928;8.410;2023-02-22T07:00:16;18.93;;;10.83;;
6013;SDS011;3035;49.928;8.410;2023-02-22T07:02:45;25.43;;;10.57;;
6013;SDS011;3035;49.928;8.410;2023-02-22T07:05:14;19.97;;;9.33;;
6013;SDS011;3035;49.928;8.410;2023-02-22T07:07:43;18.47;;;9.10;;
6013;SDS011;3035;49.928;8.410;2023-02-22T07:10:15;14.20;;;8.10;;
6013;SDS011;3035;49.928;8.410;2023-02-22T07:12:43;13.50;;;7.97;;
6013;SDS011;3035;49.928;8.410;2023-02-22T07:15:12;16.30;;;9.00;;
6013;SDS011;3035;49.928;8.410;2023-02-22T07:17:41;15.20;;;8.37;;
6013;SDS011;3035;49.928;8.410;2023-02-22T07:20:10;13.10;;;8.57;;
6013;SDS011;3035;49.928;8.410;2023-02-22T07:22:38;13.33;;;8.10;;
6013;SDS011;3035;49.928;8.410;2023-02-22T07:25:07;14.00;;;8.43;;
6013;SDS011;3035;49.928;8.410;2023-02-22T07:27:37;14.50;;;8.17;;
6013;SDS011;3035;49.928;8.410;2023-02-22T07:30:07;13.00;;;8.43;;
6013;SDS011;3035;49.928;8.410;2023-02-22T07:32:35;14.03;;;7.77;;
6013;SDS011;3035;49.928;8.410;2023-02-22T07:35:04;12.77;;;9.23;;
6013;SDS011;3035;49.928;8.410;2023-02-22T07:37:34;9.60;;;7.90;;
6013;SDS011;3035;49.928;8.410;2023-02-22T07:40:03;16.67;;;8.00;;
6013;SDS011;3035;49.928;8.410;2023-02-22T07:42:32;13.33;;;9.00;;
6013;SDS011;3035;49.928;8.410;2023-02-22T07:45:00;13.10;;;8.57;;
6013;SDS011;3035;49.928;8.410;2023-02-22T07:47:29;12.40;;;8.03;;
6013;SDS011;3035;49.928;8.410;2023-02-22T07:49:57;14.10;;;8.97;;
6013;SDS011;3035;49.928;8.410;2023-02-22T07:52:26;18.53;;;10.17;;
6013;SDS011;3035;49.928;8.410;2023-02-22T07:54:54;12.67;;;8.83;;
6013;SDS011;3035;49.928;8.410;2023-02-22T07:57:23;12.40;;;8.93;;
6013;SDS011;3035;49.928;8.410;2023-02-22T07:59:52;12.70;;;9.10;;
6013;SDS011;3035;49.928;8.410;2023-02-22T08:02:21;12.13;;;9.93;;
6013;SDS011;3035;49.928;8.410;2023-02-22T08:04:49;11.47;;;7.63;;
6013;SDS011;3035;49.928;8.410;2023-02-22T08:07:18;11.20;;;8.20;;
6013;SDS011;3035;49.928;8.410;2023-02-22T08:09:46;12.70;;;9.00;;
6013;SDS011;3035;49.928;8.410;2023-02-22T08:12:14;11.63;;;8.70;;
6013;SDS011;3035;49.928;8.410;2023-02-22T08:14:43;11.57;;;8.83;;
6013;SDS011;3035;49.928;8.410;2023-02-22T08:17:12;12.90;;;9.10;;
6013;SDS011;3035;49.928;8.410;2023-02-22T08:19:40;12.20;;;8.80;;
6013;SDS011;3035;49.928;8.410;2023-02-22T08:22:08;14.40;;;10.60;;
6013;SDS011;3035;49.928;8.410;2023-02-22T08:24:36;13.80;;;9.13;;
6013;SDS011;3035;49.928;8.410;2023-02-22T08:27:05;21.30;;;9.87;;
6013;SDS011;3035;49.928;8.410;2023-02-22T08:29:33;13.60;;;9.70;;
6013;SDS011;3035;49.928;8.410;2023-02-22T08:32:01;13.10;;;10.20;;
6013;SDS011;3035;49.928;8.410;2023-02-22T08:34:29;18.23;;;10.80;;
6013;SDS011;3035;49.928;8.410;2023-02-22T08:36:58;12.87;;;9.10;;
6013;SDS011;3035;49.928;8.410;2023-02-22T08:39:27;16.23;;;9.40;;
6013;SDS011;3035;49.928;8.410;2023-02-22T08:41:55;20.37;;;9.37;;
6013;SDS011;3035;49.928;8.410;2023-02-22T08:44:24;17.03;;;9.23;;
6013;SDS011;3035;49.928;8.410;2023-02-22T08:46:52;28.53;;;10.50;;
6013;SDS011;3035;49.928;8.410;2023-02-22T08:49:20;14.73;;;10.27;;
6013;SDS011;3035;49.928;8.410;2023-02-22T08:51:48;20.17;;;10.67;;
6013;SDS011;3035;49.928;8.410;2023-02-22T08:54:17;25.20;;;10.60;;
6013;SDS011;3035;49.928;8.410;2023-02-22T08:56:45;19.07;;;10.70;;
6013;SDS011;3035;49.928;8.410;2023-02-22T08:59:14;29.03;;;12.50;;
6013;SDS011;3035;49.928;8.410;2023-02-22T09:01:42;30.70;;;13.20;;
6013;SDS011;3035;49.928;8.410;2023-02-22T09:04:10;23.57;;;12.50;;
6013;SDS011;3035;49.928;8.410;2023-02-22T09:06:40;31.30;;;14.70;;
6013;SDS011;3035;49.928;8.410;2023-02-22T09:09:08;23.93;;;12.20;;
6013;SDS011;3035;49.928;8.410;2023-02-22T09:11:37;32.97;;;13.37;;
6013;SDS011;3035;49.928;8.410;2023-02-22T09:14:05;47.37;;;19.67;;
6013;SDS011;3035;49.928;8.410;2023-02-22T09:16:34;48.57;;;16.87;;
6013;SDS011;3035;49.928;8.410;2023-02-22T09:19:03;49.33;;;17.33;;
6013;SDS011;3035;49.928;8.410;2023-02-22T09:21:31;46.53;;;19.57;;
6013;SDS011;3035;49.928;8.410;2023-02-22T09:24:00;45.73;;;18.10;;
6013;SDS011;3035;49.928;8.410;2023-02-22T09:26:29;49.87;;;18.20;;
6013;SDS011;3035;49.928;8.410;2023-02-22T09:28:57;45.20;;;16.47;;
6013;SDS011;3035;49.928;8.410;2023-02-22T09:31:26;47.43;;;18.63;;
6013;SDS011;3035;49.928;8.410;2023-02-22T09:33:54;46.93;;;18.13;;
6013;SDS011;3035;49.928;8.410;2023-02-22T09:36:22;40.40;;;18.17;;
6013;SDS011;3035;49.928;8.410;2023-02-22T09:38:50;42.77;;;19.03;;
6013;SDS011;3035;49.928;8.410;2023-02-22T09:41:22;44.83;;;18.73;;
6013;SDS011;3035;49.928;8.410;2023-02-22T09:44:05;46.50;;;20.63;;
6013;SDS011;3035;49.928;8.410;2023-02-22T09:46:40;51.50;;;19.13;;
6013;SDS011;3035;49.928;8.410;2023-02-22T09:49:15;52.30;;;20.37;;
6013;SDS011;3035;49.928;8.410;2023-02-22T09:51:42;54.23;;;19.63;;
6013;SDS011;3035;49.928;8.410;2023-02-22T09:56:59;55.40;;;21.20;;
6013;SDS011;3035;49.928;8.410;2023-02-22T09:59:28;49.83;;;19.20;;
6013;SDS011;3035;49.928;8.410;2023-02-22T10:01:58;56.93;;;21.07;;
6013;SDS011;3035;49.928;8.410;2023-02-22T10:07:15;52.47;;;22.07;;
6013;SDS011;3035;49.928;8.410;2023-02-22T10:09:45;40.63;;;20.40;;
6013;SDS011;3035;49.928;8.410;2023-02-22T10:17:51;50.83;;;20.77;;
6013;SDS011;3035;49.928;8.410;2023-02-22T10:25:54;46.60;;;21.37;;
6013;SDS011;3035;49.928;8.410;2023-02-22T10:28:22;45.73;;;20.90;;
6013;SDS011;3035;49.928;8.410;2023-02-22T10:30:53;49.30;;;21.90;;
6013;SDS011;3035;49.928;8.410;2023-02-22T10:33:26;49.30;;;20.50;;
6013;SDS011;3035;49.928;8.410;2023-02-22T10:35:54;50.33;;;21.50;;
6013;SDS011;3035;49.928;8.410;2023-02-22T10:38:24;49.17;;;21.90;;
6013;SDS011;3035;49.928;8.410;2023-02-22T10:40:54;51.17;;;22.30;;
6013;SDS011;3035;49.928;8.410;2023-02-22T10:43:22;48.00;;;21.23;;
6013;SDS011;3035;49.928;8.410;2023-02-22T10:45:52;53.67;;;21.83;;
6013;SDS011;3035;49.928;8.410;2023-02-22T10:48:20;50.37;;;20.43;;
6013;SDS011;3035;49.928;8.410;2023-02-22T10:50:49;54.07;;;21.83;;
6013;SDS011;3035;49.928;8.410;2023-02-22T10:53:17;42.47;;;20.37;;
6013;SDS011;3035;49.928;8.410;2023-02-22T10:58:39;46.67;;;22.83;;
6013;SDS011;3035;49.928;8.410;2023-02-22T11:01:34;49.27;;;22.93;;
6013;SDS011;3035;49.928;8.410;2023-02-22T11:04:05;49.40;;;22.77;;
6013;SDS011;3035;49.928;8.410;2023-02-22T11:06:40;41.93;;;22.00;;
6013;SDS011;3035;49.928;8.410;2023-02-22T11:09:18;51.67;;;23.80;;
6013;SDS011;3035;49.928;8.410;2023-02-22T11:11:47;53.70;;;21.93;;
6013;SDS011;3035;49.928;8.410;2023-02-22T11:16:53;49.23;;;23.10;;
6013;SDS011;3035;49.928;8.410;2023-02-22T11:19:23;48.80;;;22.67;;
6013;SDS011;3035;49.928;8.410;2023-02-22T11:21:56;51.77;;;21.83;;
6013;SDS011;3035;49.928;8.410;2023-02-22T11:24:27;46.47;;;21.73;;
6013;SDS011;3035;49.928;8.410;2023-02-22T11:26:57;47.87;;;22.73;;
6013;SDS011;3035;49.928;8.410;2023-02-22T11:29:29;48.17;;;23.70;;
6013;SDS011;3035;49.928;8.410;2023-02-22T11:32:00;45.03;;;24.20;;
6013;SDS011;3035;49.928;8.410;2023-02-22T11:34:29;43.87;;;23.23;;
6013;SDS011;3035;49.928;8.410;2023-02-22T11:37:14;45.03;;;23.30;;
6013;SDS011;3035;49.928;8.410;2023-02-22T11:39:43;42.57;;;21.07;;
6013;SDS011;3035;49.928;8.410;2023-02-22T11:44:48;43.00;;;24.13;;
6013;SDS011;3035;49.928;8.410;2023-02-22T11:47:23;52.50;;;26.33;;
6013;SDS011;3035;49.928;8.410;2023-02-22T11:49:45;38.23;;;21.90;;
6013;SDS011;3035;49.928;8.410;2023-02-22T11:52:15;34.43;;;20.97;;
6013;SDS011;3035;49.928;8.410;2023-02-22T11:54:55;39.00;;;21.50;;
6013;SDS011;3035;49.928;8.410;2023-02-22T11:57:36;33.77;;;20.00;;
6013;SDS011;3035;49.928;8.410;2023-02-22T12:06:32;33.73;;;20.30;;
6013;SDS011;3035;49.928;8.410;2023-02-22T12:09:17;27.63;;;18.63;;
6013;SDS011;3035;49.928;8.410;2023-02-22T12:11:50;37.77;;;24.10;;
6013;SDS011;3035;49.928;8.410;2023-02-22T12:17:27;27.57;;;18.47;;
6013;SDS011;3035;49.928;8.410;2023-02-22T12:22:56;30.60;;;18.33;;
6013;SDS011;3035;49.928;8.410;2023-02-22T12:25:43;30.47;;;18.30;;
6013;SDS011;3035;49.928;8.410;2023-02-22T12:28:22;28.60;;;17.20;;
6013;SDS011;3035;49.928;8.410;2023-02-22T12:30:52;26.20;;;17.17;;
6013;SDS011;3035;49.928;8.410;2023-02-22T12:33:23;28.97;;;16.40;;
6013;SDS011;3035;49.928;8.410;2023-02-22T12:35:50;28.23;;;18.13;;
6013;SDS011;3035;49.928;8.410;2023-02-22T12:41:06;27.40;;;16.93;;
6013;SDS011;3035;49.928;8.410;2023-02-22T12:43:38;42.03;;;18.73;;
6013;SDS011;3035;49.928;8.410;2023-02-22T12:46:09;27.83;;;18.60;;
6013;SDS011;3035;49.928;8.410;2023-02-22T12:48:42;30.30;;;17.13;;
6013;SDS011;3035;49.928;8.410;2023-02-22T12:54:06;25.00;;;16.63;;
6013;SDS011;3035;49.928;8.410;2023-02-22T12:56:33;27.63;;;17.23;;
6013;SDS011;3035;49.928;8.410;2023-02-22T12:59:10;31.40;;;18.07;;
6013;SDS011;3035;49.928;8.410;2023-02-22T13:01:40;28.13;;;16.93;;
6013;SDS011;3035;49.928;8.410;2023-02-22T13:04:07;27.30;;;16.23;;
6013;SDS011;3035;49.928;8.410;2023-02-22T13:06:42;38.60;;;18.00;;
6013;SDS011;3035;49.928;8.410;2023-02-22T13:09:31;25.90;;;16.47;;
6013;SDS011;3035;49.928;8.410;2023-02-22T13:12:05;29.40;;;17.40;;
6013;SDS011;3035;49.928;8.410;2023-02-22T13:17:15;26.70;;;17.40;;
6013;SDS011;3035;49.928;8.410;2023-02-22T13:19:45;24.03;;;16.00;;
6013;SDS011;3035;49.928;8.410;2023-02-22T13:22:19;31.57;;;16.30;;
6013;SDS011;3035;49.928;8.410;2023-02-22T13:25:08;22.47;;;15.70;;
6013;SDS011;3035;49.928;8.410;2023-02-22T13:27:45;25.83;;;15.47;;
6013;SDS011;3035;49.928;8.410;2023-02-22T13:30:34;23.17;;;15.57;;
6013;SDS011;3035;49.928;8.410;2023-02-22T13:36:06;22.87;;;16.13;;
6013;SDS011;3035;49.928;8.410;2023-02-22T13:38:49;27.77;;;16.97;;
6013;SDS011;3035;49.928;8.410;2023-02-22T13:41:33;25.63;;;16.60;;
6013;SDS011;3035;49.928;8.410;2023-02-22T13:44:12;25.17;;;17.57;;
6013;SDS011;3035;49.928;8.410;2023-02-22T13:49:53;23.93;;;16.70;;
6013;SDS011;3035;49.928;8.410;2023-02-22T13:52:25;24.00;;;17.00;;
6013;SDS011;3035;49.928;8.410;2023-02-22T13:54:54;29.27;;;17.93;;
6013;SDS011;3035;49.928;8.410;2023-02-22T13:57:23;32.53;;;18.00;;
6013;SDS011;3035;49.928;8.410;2023-02-22T14:14:13;27.90;;;17.40;;
6013;SDS011;3035;49.928;8.410;2023-02-22T14:16:41;29.07;;;16.63;;
6013;SDS011;3035;49.928;8.410;2023-02-22T14:19:17;29.93;;;17.60;;
6013;SDS011;3035;49.928;8.410;2023-02-22T14:24:23;28.07;;;19.13;;
6013;SDS011;3035;49.928;8.410;2023-02-22T14:27:01;25.80;;;17.33;;
6013;SDS011;3035;49.928;8.410;2023-02-22T14:29:30;29.47;;;17.10;;
6013;SDS011;3035;49.928;8.410;2023-02-22T14:32:01;28.13;;;17.47;;
6013;SDS011;3035;49.928;8.410;2023-02-22T14:37:19;25.40;;;18.50;;
6013;SDS011;3035;49.928;8.410;2023-02-22T14:39:57;32.03;;;19.23;;
6013;SDS011;3035;49.928;8.410;2023-02-22T14:42:28;28.30;;;19.23;;
6013;SDS011;3035;49.928;8.410;2023-02-22T14:45:00;33.00;;;20.77;;
6013;SDS011;3035;49.928;8.410;2023-02-22T14:47:31;29.10;;;19.07;;
6013;SDS011;3035;49.928;8.410;2023-02-22T14:50:12;29.93;;;18.73;;
6013;SDS011;3035;49.928;8.410;2023-02-22T14:52:43;32.37;;;19.40;;
6013;SDS011;3035;49.928;8.410;2023-02-22T14:55:14;29.43;;;17.43;;
6013;SDS011;3035;49.928;8.410;2023-02-22T14:57:47;33.57;;;19.07;;
6013;SDS011;3035;49.928;8.410;2023-02-22T15:00:21;30.23;;;16.80;;
6013;SDS011;3035;49.928;8.410;2023-02-22T15:02:48;27.07;;;17.70;;
6013;SDS011;3035;49.928;8.410;2023-02-22T15:05:16;28.60;;;17.33;;
6013;SDS011;3035;49.928;8.410;2023-02-22T15:07:49;26.33;;;16.70;;
6013;SDS011;3035;49.928;8.410;2023-02-22T15:10:23;36.53;;;17.43;;
6013;SDS011;3035;49.928;8.410;2023-02-22T15:12:56;31.90;;;19.20;;
6013;SDS011;3035;49.928;8.410;2023-02-22T15:15:44;31.47;;;17.10;;
6013;SDS011;3035;49.928;8.410;2023-02-22T15:18:16;24.93;;;16.40;;
6013;SDS011;3035;49.928;8.410;2023-02-22T15:20:54;32.63;;;18.53;;
6013;SDS011;3035;49.928;8.410;2023-02-22T15:23:22;25.80;;;17.13;;
6013;SDS011;3035;49.928;8.410;2023-02-22T15:25:50;33.57;;;19.87;;
6013;SDS011;3035;49.928;8.410;2023-02-22T15:28:18;29.47;;;18.00;;
6013;SDS011;3035;49.928;8.410;2023-02-22T15:30:46;25.93;;;17.23;;
6013;SDS011;3035;49.928;8.410;2023-02-22T15:33:17;27.30;;;16.70;;
6013;SDS011;3035;49.928;8.410;2023-02-22T15:35:44;26.60;;;17.47;;
6013;SDS011;3035;49.928;8.410;2023-02-22T15:38:17;28.27;;;17.70;;
6013;SDS011;3035;49.928;8.410;2023-02-22T15:40:45;33.10;;;18.50;;
6013;SDS011;3035;49.928;8.410;2023-02-22T15:43:16;28.83;;;17.93;;
6013;SDS011;3035;49.928;8.410;2023-02-22T15:45:46;32.70;;;18.50;;
6013;SDS011;3035;49.928;8.410;2023-02-22T15:48:15;31.20;;;18.80;;
6013;SDS011;3035;49.928;8.410;2023-02-22T15:53:34;27.40;;;17.17;;
6013;SDS011;3035;49.928;8.410;2023-02-22T15:56:08;31.60;;;18.20;;
6013;SDS011;3035;49.928;8.410;2023-02-22T15:58:37;26.33;;;17.30;;
6013;SDS011;3035;49.928;8.410;2023-02-22T16:01:06;26.50;;;17.80;;
6013;SDS011;3035;49.928;8.410;2023-02-22T16:03:35;29.93;;;17.47;;
6013;SDS011;3035;49.928;8.410;2023-02-22T16:06:07;34.20;;;18.27;;
6013;SDS011;3035;49.928;8.410;2023-02-22T16:08:38;34.90;;;18.10;;
6013;SDS011;3035;49.928;8.410;2023-02-22T16:11:04;32.70;;;19.50;;
6013;SDS011;3035;49.928;8.410;2023-02-22T16:13:32;27.40;;;18.13;;
6013;SDS011;3035;49.928;8.410;2023-02-22T16:16:03;32.37;;;19.23;;
6013;SDS011;3035;49.928;8.410;2023-02-22T16:18:32;27.33;;;17.77;;
6013;SDS011;3035;49.928;8.410;2023-02-22T16:21:03;31.10;;;17.70;;
6013;SDS011;3035;49.928;8.410;2023-02-22T16:23:42;31.30;;;18.33;;
6013;SDS011;3035;49.928;8.410;2023-02-22T16:26:23;27.80;;;18.70;;
6013;SDS011;3035;49.928;8.410;2023-02-22T16:28:56;38.33;;;19.83;;
6013;SDS011;3035;49.928;8.410;2023-02-22T16:31:26;33.90;;;19.27;;
6013;SDS011;3035;49.928;8.410;2023-02-22T16:33:54;43.57;;;20.40;;
6013;SDS011;3035;49.928;8.410;2023-02-22T16:36:23;38.77;;;19.63;;
6013;SDS011;3035;49.928;8.410;2023-02-22T16:38:50;26.87;;;18.33;;